Time;durP1;ratioP1;P1;durP2;ratioP2;P2;SDS_P1;SDS_P2;PMS_P1;PMS_P2;Temp;Humidity;BMP_temperature;BMP_pressure;BME280_temperature;BME280_humidity;BME280_pressure;Samples;Min_cycle;Max_cycle;Signal;HPM_P1;HPM_P2
2022/09/15 00:01:19;;;;;;;;;;;;;;;15.32;100.00;96717.03;1722939;82;20201;-88
2022/09/15 00:03:46;;;;;;;;;;;;;;;15.31;100.00;96706.69;1720155;82;21188;-87
2022/09/15 00:06:12;;;;;;;;;;;;;;;15.33;100.00;96703.61;1723848;82;20201;-87
2022/09/15 00:08:38;;;;;;;;;;;;;;;15.33;100.00;96699.52;1720288;82;20221;-87
2022/09/15 00:11:18;;;;;;;;;;;;;;;15.30;100.00;96699.64;1720019;82;20153;-88
2022/09/15 00:13:44;;;;;;;;;;;;;;;15.28;100.00;96691.55;1722682;82;20557;-87
2022/09/15 00:16:11;;;;;;;;;;;;;;;15.28;100.00;96690.18;1744659;82;21905;-87
2022/09/15 00:18:37;;;;;;;;;;;;;;;15.26;100.00;96684.28;1744775;82;20224;-87
2022/09/15 00:21:06;;;;;;;;;;;;;;;15.24;100.00;96669.05;1744852;82;20744;-88
2022/09/15 00:23:32;;;;;;;;;;;;;;;15.25;100.00;96664.38;1739033;82;20570;-87
2022/09/15 00:25:58;;;;;;;;;;;;;;;15.27;100.00;96668.13;1723916;82;20229;-88
2022/09/15 00:28:24;;;;;;;;;;;;;;;15.23;100.00;96657.91;1720290;83;21086;-88
2022/09/15 00:30:51;;;;;;;;;;;;;;;15.24;100.00;96653.24;1744658;82;20526;-88
2022/09/15 00:33:17;;;;;;;;;;;;;;;15.24;100.00;96645.85;1745139;82;20186;-87
2022/09/15 00:35:44;;;;;;;;;;;;;;;15.24;100.00;96645.85;1737039;82;20195;-86
2022/09/15 00:38:11;;;;;;;;;;;;;;;15.26;100.00;96645.50;1715447;83;20503;-88
2022/09/15 00:40:51;;;;;;;;;;;;;;;15.28;100.00;96645.95;1724001;82;21921;-88
2022/09/15 00:43:18;;;;;;;;;;;;;;;15.28;100.00;96647.31;1744934;82;20473;-87
2022/09/15 00:45:44;;;;;;;;;;;;;;;15.28;100.00;96647.31;1744981;82;20218;-87
2022/09/15 00:48:13;;;;;;;;;;;;;;;15.24;100.00;96635.51;1744978;82;20262;-87
2022/09/15 00:50:39;;;;;;;;;;;;;;;15.24;100.00;96636.88;1730006;82;20589;-87
2022/09/15 00:53:06;;;;;;;;;;;;;;;15.23;100.00;96640.74;1720272;83;21938;-87
2022/09/15 00:55:39;;;;;;;;;;;;;;;15.22;100.00;96640.52;1734077;82;20225;-88
2022/09/15 00:58:07;;;;;;;;;;;;;;;15.22;100.00;96646.77;1745130;82;20213;-87
2022/09/15 01:00:33;;;;;;;;;;;;;;;15.22;100.00;96643.25;1723379;82;20183;-88
2022/09/15 01:02:59;;;;;;;;;;;;;;;15.20;100.00;96619.58;1720181;83;20199;-87
2022/09/15 01:05:27;;;;;;;;;;;;;;;15.21;100.00;96609.71;1729698;82;21096;-88
2022/09/15 01:08:00;;;;;;;;;;;;;;;15.20;100.00;96614.92;1715352;83;20224;-87
2022/09/15 01:10:29;;;;;;;;;;;;;;;15.23;100.00;96618.91;1728038;82;20186;-87
2022/09/15 01:12:57;;;;;;;;;;;;;;;15.24;100.00;96623.23;1745143;82;20205;-88
2022/09/15 01:15:25;;;;;;;;;;;;;;;15.22;100.00;96624.15;1745485;82;20174;-87
2022/09/15 01:17:57;;;;;;;;;;;;;;;15.20;100.00;96618.22;1745090;82;21863;-88
2022/09/15 01:20:45;;;;;;;;;;;;;;;15.21;100.00;96617.08;1744722;82;20217;-87
2022/09/15 01:23:43;;;;;;;;;;;;;;;15.19;100.00;96626.97;1743399;82;20166;-88
2022/09/15 01:26:26;;;;;;;;;;;;;;;15.21;100.00;96622.53;1736255;82;20200;-87
2022/09/15 01:29:21;;;;;;;;;;;;;;;15.22;100.00;96625.52;1740581;82;20140;-87
2022/09/15 01:34:41;;;;;;;;;;;;;;;15.25;100.00;96624.81;1732689;82;20170;-87
2022/09/15 01:37:09;;;;;;;;;;;;;;;15.22;100.00;96620.06;1739251;82;20179;-87
2022/09/15 01:39:38;;;;;;;;;;;;;;;15.21;100.00;96623.89;1727892;82;20168;-88
2022/09/15 01:42:08;;;;;;;;;;;;;;;15.22;100.00;96624.15;1720273;83;20449;-87
2022/09/15 01:44:46;;;;;;;;;;;;;;;15.21;100.00;96613.80;1720858;82;21016;-87
2022/09/15 01:47:13;;;;;;;;;;;;;;;15.21;100.00;96614.34;1745117;82;20155;-87
2022/09/15 01:49:45;;;;;;;;;;;;;;;15.19;100.00;96605.14;1745074;82;20457;-88
2022/09/15 01:52:10;;;;;;;;;;;;;;;15.14;100.00;96598.58;1745236;82;20178;-88
2022/09/15 01:54:39;;;;;;;;;;;;;;;15.13;100.00;96595.63;1745071;82;20176;-87
2022/09/15 01:57:05;;;;;;;;;;;;;;;15.11;100.00;96606.64;1744962;82;21800;-87
2022/09/15 01:59:32;;;;;;;;;;;;;;;15.12;100.00;96610.95;1745019;82;20253;-88
2022/09/15 02:02:08;;;;;;;;;;;;;;;15.08;100.00;96601.87;1685518;83;20200;-87
2022/09/15 02:04:40;;;;;;;;;;;;;;;15.05;100.00;96602.00;1706463;82;20550;-88
2022/09/15 02:07:22;;;;;;;;;;;;;;;15.01;100.00;96601.65;1697743;83;20181;-87
2022/09/15 02:10:09;;;;;;;;;;;;;;;15.00;100.00;96592.67;1709327;82;21170;-88
2022/09/15 02:12:40;;;;;;;;;;;;;;;14.99;100.00;96591.66;1720045;83;20163;-87
2022/09/15 02:15:08;;;;;;;;;;;;;;;14.95;100.00;96603.80;1725791;82;20220;-87
2022/09/15 02:17:37;;;;;;;;;;;;;;;14.91;100.00;96595.52;1745000;82;20189;-87
2022/09/15 02:20:14;;;;;;;;;;;;;;;14.85;100.00;96595.52;1745005;82;20190;-88
2022/09/15 02:22:43;;;;;;;;;;;;;;;14.77;100.00;96593.70;1745021;82;20912;-87
2022/09/15 02:25:12;;;;;;;;;;;;;;;14.73;100.00;96584.63;1712635;82;20178;-88
2022/09/15 02:27:40;;;;;;;;;;;;;;;14.71;100.00;96582.81;1720312;82;20174;-87
2022/09/15 02:30:11;;;;;;;;;;;;;;;14.69;100.00;96579.61;1737221;82;20492;-87
2022/09/15 02:32:39;;;;;;;;;;;;;;;14.69;100.00;96579.61;1745116;82;20201;-87
2022/09/15 02:35:06;;;;;;;;;;;;;;;14.71;100.00;96585.54;1739380;82;21119;-87
2022/09/15 02:37:32;;;;;;;;;;;;;;;14.71;100.00;96594.28;1743363;82;20167;-87
2022/09/15 02:39:58;;;;;;;;;;;;;;;14.70;100.00;96594.86;1727214;82;20439;-87
2022/09/15 02:42:26;;;;;;;;;;;;;;;14.68;100.00;96590.29;1720472;83;20253;-87
2022/09/15 02:44:52;;;;;;;;;;;;;;;14.65;100.00;96585.53;1720250;82;20182;-86
2022/09/15 02:47:18;;;;;;;;;;;;;;;14.65;100.00;96574.05;1720333;83;21133;-88
2022/09/15 02:49:43;;;;;;;;;;;;;;;14.64;100.00;96586.09;1720376;82;20249;-87
2022/09/15 02:52:09;;;;;;;;;;;;;;;14.65;100.00;96582.23;1720227;83;20213;-86
2022/09/15 02:54:35;;;;;;;;;;;;;;;14.68;100.00;96581.55;1720386;82;20174;-86
2022/09/15 02:57:01;;;;;;;;;;;;;;;14.67;100.00;96573.71;1720501;83;20248;-86
2022/09/15 03:00:11;;;;;;;;;;;;;;;14.68;100.00;96586.20;1730697;82;21161;-88
2022/09/15 03:01:54;;;;;;;;;;;;;;;14.70;100.00;96581.22;1694135;83;20164;-86
2022/09/15 03:04:20;;;;;;;;;;;;;;;14.71;100.00;96577.93;1714868;82;20196;-88
2022/09/15 03:06:46;;;;;;;;;;;;;;;14.72;100.00;96569.41;1744875;82;20240;-87
2022/09/15 03:09:12;;;;;;;;;;;;;;;14.73;100.00;96574.28;1744803;82;20186;-88
2022/09/15 03:11:38;;;;;;;;;;;;;;;14.76;100.00;96580.41;1745157;82;21074;-88
2022/09/15 03:14:05;;;;;;;;;;;;;;;14.76;100.00;96578.48;1745196;82;20217;-86
2022/09/15 03:16:31;;;;;;;;;;;;;;;14.78;100.00;96572.11;1720969;82;20529;-87
2022/09/15 03:18:58;;;;;;;;;;;;;;;14.79;100.00;96571.00;1720089;82;20408;-87
2022/09/15 03:21:24;;;;;;;;;;;;;;;14.80;100.00;96567.12;1720209;82;20155;-87
2022/09/15 03:23:49;;;;;;;;;;;;;;;14.81;100.00;96563.83;1716022;82;21033;-88
2022/09/15 03:26:15;;;;;;;;;;;;;;;14.82;100.00;96567.58;1734440;82;20299;-87
2022/09/15 03:28:41;;;;;;;;;;;;;;;14.85;100.00;96573.70;1744913;82;20512;-88
2022/09/15 03:31:07;;;;;;;;;;;;;;;14.87;100.00;96568.72;1744949;82;20809;-87
2022/09/15 03:33:33;;;;;;;;;;;;;;;14.91;100.00;96568.25;1744811;82;20241;-86
2022/09/15 03:35:59;;;;;;;;;;;;;;;14.93;100.00;96560.52;1733788;82;21080;-88
2022/09/15 03:38:25;;;;;;;;;;;;;;;14.97;100.00;96559.84;1715225;83;20190;-86
2022/09/15 03:41:06;;;;;;;;;;;;;;;14.98;100.00;96559.50;1710203;82;20276;-88
2022/09/15 03:43:32;;;;;;;;;;;;;;;14.98;100.00;96562.80;1720106;82;20287;-88
2022/09/15 03:45:58;;;;;;;;;;;;;;;14.98;100.00;96559.50;1715832;82;20166;-86
2022/09/15 03:48:24;;;;;;;;;;;;;;;14.98;100.00;96559.50;1720065;83;21108;-87
2022/09/15 03:50:50;;;;;;;;;;;;;;;14.97;100.00;96555.76;1720028;82;20167;-87
2022/09/15 03:53:16;;;;;;;;;;;;;;;14.96;100.00;96554.96;1720304;83;20233;-87
2022/09/15 03:55:44;;;;;;;;;;;;;;;14.96;100.00;96553.59;1731253;82;20190;-87
2022/09/15 03:58:11;;;;;;;;;;;;;;;14.94;100.00;96555.84;1720409;83;20166;-88
2022/09/15 04:00:36;;;;;;;;;;;;;;;14.92;100.00;96550.75;1735067;82;21148;-88
2022/09/15 04:03:02;;;;;;;;;;;;;;;14.91;100.00;96559.27;1745000;82;20197;-87
2022/09/15 04:05:28;;;;;;;;;;;;;;;14.89;100.00;96556.89;1738010;82;20212;-87
2022/09/15 04:07:53;;;;;;;;;;;;;;;14.88;100.00;96558.03;1745073;82;20189;-87
2022/09/15 04:10:19;;;;;;;;;;;;;;;14.89;100.00;96558.26;1745365;82;20184;-88
2022/09/15 04:12:45;;;;;;;;;;;;;;;14.89;100.00;96562.92;1744963;82;21033;-87
2022/09/15 04:15:11;;;;;;;;;;;;;;;14.89;100.00;96561.56;1734337;82;20284;-88
2022/09/15 04:17:36;;;;;;;;;;;;;;;14.92;100.00;96554.05;1744885;82;20792;-88
2022/09/15 04:20:04;;;;;;;;;;;;;;;14.94;100.00;96553.92;1740003;82;20653;-88
2022/09/15 04:22:31;;;;;;;;;;;;;;;14.97;100.00;96551.66;1720255;83;20167;-88
2022/09/15 04:24:56;;;;;;;;;;;;;;;14.97;100.00;96547.00;1712500;82;21154;-88
2022/09/15 04:27:22;;;;;;;;;;;;;;;15.04;100.00;96540.95;1720322;83;20182;-88
2022/09/15 04:29:51;;;;;;;;;;;;;;;15.09;100.00;96527.88;1720509;82;20200;-88
2022/09/15 04:32:17;;;;;;;;;;;;;;;15.11;100.00;96531.05;1720218;83;20139;-87
2022/09/15 04:34:43;;;;;;;;;;;;;;;15.15;100.00;96527.08;1720616;82;20155;-88
2022/09/15 04:37:09;;;;;;;;;;;;;;;15.20;100.00;96532.27;1736614;82;21144;-88
2022/09/15 04:39:35;;;;;;;;;;;;;;;15.24;100.00;96535.34;1715764;82;20222;-87
2022/09/15 04:42:04;;;;;;;;;;;;;;;15.31;100.00;96542.16;1745194;82;20231;-88
2022/09/15 04:44:28;;;;;;;;;;;;;;;15.38;100.00;96549.98;1737833;82;20446;-88
2022/09/15 04:46:54;;;;;;;;;;;;;;;15.48;100.00;96543.23;1720839;82;20253;-88
2022/09/15 04:49:20;;;;;;;;;;;;;;;15.58;100.00;96548.20;1722504;82;21130;-88
2022/09/15 04:51:46;;;;;;;;;;;;;;;15.68;100.00;96555.13;1728686;82;20185;-88
2022/09/15 04:54:12;;;;;;;;;;;;;;;15.74;100.00;96551.02;1726094;82;20242;-87
2022/09/15 04:56:38;;;;;;;;;;;;;;;15.87;100.00;96552.52;1736522;82;20165;-88
2022/09/15 04:59:03;;;;;;;;;;;;;;;16.01;100.00;96559.74;1736106;82;20226;-86
2022/09/15 05:01:31;;;;;;;;;;;;;;;16.14;100.00;96552.26;1738701;82;21083;-88
2022/09/15 05:03:57;;;;;;;;;;;;;;;16.26;100.00;96560.97;1708102;83;20213;-88
2022/09/15 05:06:25;;;;;;;;;;;;;;;16.32;100.00;96568.56;1742258;82;20161;-87
2022/09/15 05:08:52;;;;;;;;;;;;;;;16.37;100.00;96560.66;1735119;82;20195;-86
2022/09/15 05:11:18;;;;;;;;;;;;;;;16.40;100.00;96559.16;1711935;82;20368;-87
2022/09/15 05:13:44;;;;;;;;;;;;;;;16.41;100.00;96558.83;1713514;82;21054;-87
2022/09/15 05:16:15;;;;;;;;;;;;;;;16.46;100.00;96552.28;1733145;82;20223;-88
2022/09/15 05:18:42;;;;;;;;;;;;;;;16.50;100.00;96554.55;1744849;82;20229;-88
2022/09/15 05:21:09;;;;;;;;;;;;;;;16.53;100.00;96555.20;1743216;82;20481;-89
2022/09/15 05:23:35;;;;;;;;;;;;;;;16.55;100.00;96556.42;1737563;82;20612;-87
2022/09/15 05:26:03;;;;;;;;;;;;;;;16.58;100.00;96551.63;1720365;82;21976;-88
2022/09/15 05:28:31;;;;;;;;;;;;;;;16.60;100.00;96559.48;1743287;82;20166;-87
2022/09/15 05:30:56;;;;;;;;;;;;;;;16.61;100.00;96561.85;1719366;82;20532;-87
2022/09/15 05:33:22;;;;;;;;;;;;;;;16.63;100.00;96556.81;1716408;82;20500;-87
2022/09/15 05:35:53;;;;;;;;;;;;;;;16.67;100.00;96561.59;1725988;82;20528;-88
2022/09/15 05:38:19;;;;;;;;;;;;;;;16.68;100.00;96555.77;1743499;82;21103;-88
2022/09/15 05:40:44;;;;;;;;;;;;;;;16.69;100.00;96562.85;1716926;82;20185;-88
2022/09/15 05:43:11;;;;;;;;;;;;;;;16.74;100.00;96550.26;1720140;83;20170;-88
2022/09/15 05:45:36;;;;;;;;;;;;;;;16.82;100.00;96548.48;1731256;82;20196;-89
2022/09/15 05:48:03;;;;;;;;;;;;;;;16.86;100.00;96559.74;1720528;82;20175;-89
2022/09/15 05:50:29;;;;;;;;;;;;;;;16.91;100.00;96546.35;1740209;82;21122;-88
2022/09/15 05:52:56;;;;;;;;;;;;;;;16.95;100.00;96556.81;1702111;82;39556;-87
2022/09/15 05:55:22;;;;;;;;;;;;;;;16.96;100.00;96551.56;1717712;82;20187;-89
2022/09/15 05:57:47;;;;;;;;;;;;;;;16.99;100.00;96544.57;1723109;82;20204;-88
2022/09/15 06:00:14;;;;;;;;;;;;;;;17.14;100.00;96537.70;1732263;82;20226;-89
2022/09/15 06:02:39;;;;;;;;;;;;;;;17.27;100.00;96541.69;1685924;83;21066;-89
2022/09/15 06:05:05;;;;;;;;;;;;;;;17.41;100.00;96549.61;1661907;85;20262;-87
2022/09/15 06:07:31;;;;;;;;;;;;;;;17.53;100.00;96548.69;1666144;84;20164;-89
2022/09/15 06:09:57;;;;;;;;;;;;;;;17.69;100.00;96555.47;1662866;85;20176;-89
2022/09/15 06:12:23;;;;;;;;;;;;;;;17.80;100.00;96552.39;1726868;82;20183;-89
2022/09/15 06:14:49;;;;;;;;;;;;;;;17.91;100.00;96548.48;1726211;82;21093;-86
2022/09/15 06:17:16;;;;;;;;;;;;;;;18.04;100.00;96544.43;1722374;82;20173;-89
2022/09/15 06:19:42;;;;;;;;;;;;;;;18.14;100.00;96538.92;1729671;82;20305;-88
2022/09/15 06:22:07;;;;;;;;;;;;;;;18.24;100.00;96542.42;1715546;82;20183;-87
2022/09/15 06:24:33;;;;;;;;;;;;;;;18.40;100.00;96531.34;1724376;80;20233;-87
2022/09/15 06:26:59;;;;;;;;;;;;;;;18.55;100.00;96535.91;1719351;83;21090;-87
2022/09/15 06:29:25;;;;;;;;;;;;;;;18.70;100.00;96536.94;1721957;82;20274;-89
2022/09/15 06:31:50;;;;;;;;;;;;;;;18.74;100.00;96535.85;1723237;82;20633;-88
2022/09/15 06:34:16;;;;;;;;;;;;;;;18.80;100.00;96525.33;1723276;82;20735;-87
2022/09/15 06:36:42;;;;;;;;;;;;;;;18.80;100.00;96534.94;1723770;82;20292;-87
2022/09/15 06:39:08;;;;;;;;;;;;;;;18.80;100.00;96538.50;1719080;82;21057;-89
2022/09/15 06:41:34;;;;;;;;;;;;;;;18.84;100.00;96548.15;1727031;82;20201;-88
2022/09/15 06:44:00;;;;;;;;;;;;;;;18.85;100.00;96546.98;1742724;82;20263;-89
2022/09/15 06:46:27;;;;;;;;;;;;;;;18.90;100.00;96545.89;1723771;82;20397;-86
2022/09/15 06:48:53;;;;;;;;;;;;;;;18.97;100.00;96555.03;1723344;82;20703;-87
2022/09/15 06:51:21;;;;;;;;;;;;;;;19.05;100.00;96557.27;1705756;82;21027;-89
2022/09/15 06:53:47;;;;;;;;;;;;;;;19.06;100.00;96563.00;1739125;82;20218;-87
2022/09/15 06:56:14;;;;;;;;;;;;;;;19.05;100.00;96558.06;1725111;82;20208;-89
2022/09/15 06:58:40;;;;;;;;;;;;;;;19.14;100.00;96564.66;1724831;82;20188;-87
2022/09/15 07:01:08;;;;;;;;;;;;;;;19.25;100.00;96576.61;1725538;82;20178;-89
2022/09/15 07:03:35;;;;;;;;;;;;;;;19.81;100.00;96593.64;1731779;82;21039;-87
2022/09/15 07:06:02;;;;;;;;;;;;;;;19.93;100.00;96605.78;1720615;82;20262;-90
2022/09/15 07:08:28;;;;;;;;;;;;;;;20.07;99.22;96602.98;1722590;82;20180;-86
2022/09/15 07:10:54;;;;;;;;;;;;;;;20.16;99.79;96604.84;1726003;82;20219;-88
2022/09/15 07:13:20;;;;;;;;;;;;;;;20.22;100.00;96616.52;1731372;81;20982;-87
2022/09/15 07:15:55;;;;;;;;;;;;;;;20.29;99.89;96618.56;1732284;82;22436;-89
2022/09/15 07:18:21;;;;;;;;;;;;;;;20.36;97.58;96614.51;1734146;82;20656;-89
2022/09/15 07:20:47;;;;;;;;;;;;;;;20.38;97.79;96621.00;1722618;82;20744;-87
2022/09/15 07:23:12;;;;;;;;;;;;;;;20.58;94.39;96629.28;1723276;82;21195;-87
2022/09/15 07:25:42;;;;;;;;;;;;;;;20.47;96.02;96628.40;1722191;82;20255;-88
2022/09/15 07:28:08;;;;;;;;;;;;;;;20.26;96.54;96642.70;1722382;82;21206;-87
2022/09/15 07:30:33;;;;;;;;;;;;;;;20.19;94.33;96640.66;1724863;82;20771;-86
2022/09/15 07:32:59;;;;;;;;;;;;;;;20.10;96.68;96643.48;1721660;82;20291;-89
2022/09/15 07:35:25;;;;;;;;;;;;;;;19.96;95.29;96646.26;1724881;82;20506;-89
2022/09/15 07:37:51;;;;;;;;;;;;;;;19.83;95.08;96639.44;1724757;82;20243;-87
2022/09/15 07:40:17;;;;;;;;;;;;;;;19.78;95.96;96657.61;1686087;82;21909;-89
2022/09/15 07:42:43;;;;;;;;;;;;;;;19.73;95.02;96660.67;1700261;83;20320;-87
2022/09/15 07:45:10;;;;;;;;;;;;;;;19.65;96.18;96682.34;1721129;82;20258;-87
2022/09/15 07:47:36;;;;;;;;;;;;;;;19.72;94.21;96698.94;1727805;82;20197;-86
2022/09/15 07:50:03;;;;;;;;;;;;;;;19.57;95.19;96691.09;1701575;84;20185;-86
2022/09/15 07:52:29;;;;;;;;;;;;;;;19.54;95.75;96686.28;1675343;84;21055;-89
2022/09/15 07:54:55;;;;;;;;;;;;;;;19.45;95.92;96699.48;1675033;84;20481;-89
2022/09/15 07:57:21;;;;;;;;;;;;;;;19.34;96.75;96700.70;1676216;84;20312;-88
2022/09/15 07:59:46;;;;;;;;;;;;;;;19.30;97.07;96708.08;1686362;84;20177;-87
2022/09/15 08:02:16;;;;;;;;;;;;;;;19.39;97.65;96722.34;1723548;82;20185;-89
2022/09/15 08:04:43;;;;;;;;;;;;;;;19.50;97.07;96716.25;1725133;82;21073;-88
2022/09/15 08:07:09;;;;;;;;;;;;;;;19.48;96.69;96731.70;1726959;80;20172;-87
2022/09/15 08:09:38;;;;;;;;;;;;;;;19.24;96.57;96728.79;1722768;82;20207;-87
2022/09/15 08:12:04;;;;;;;;;;;;;;;19.09;97.71;96734.61;1721987;82;20302;-88
2022/09/15 08:14:31;;;;;;;;;;;;;;;18.99;98.42;96742.09;1724321;82;20177;-89
2022/09/15 08:17:03;;;;;;;;;;;;;;;18.92;98.74;96761.75;1723774;82;21028;-89
2022/09/15 08:19:26;;;;;;;;;;;;;;;18.75;98.67;96777.51;1730452;80;20213;-88
2022/09/15 08:21:52;;;;;;;;;;;;;;;18.59;97.98;96783.63;1727689;82;20170;-87
2022/09/15 08:24:18;;;;;;;;;;;;;;;18.49;98.16;96789.69;1730299;82;20366;-87
2022/09/15 08:26:43;;;;;;;;;;;;;;;18.37;98.68;96797.46;1721293;82;20271;-87
2022/09/15 08:29:09;;;;;;;;;;;;;;;18.21;98.75;96816.73;1725561;82;21116;-87
2022/09/15 08:31:35;;;;;;;;;;;;;;;17.92;99.60;96809.80;1697257;82;20202;-89
2022/09/15 08:34:05;;;;;;;;;;;;;;;17.76;100.00;96809.81;1729475;82;20295;-89
2022/09/15 08:36:28;;;;;;;;;;;;;;;17.61;100.00;96824.31;1727756;82;20643;-88
2022/09/15 08:38:54;;;;;;;;;;;;;;;17.44;100.00;96835.62;1703409;82;20732;-89
2022/09/15 08:41:34;;;;;;;;;;;;;;;17.10;100.00;96837.87;1733564;82;21289;-88
2022/09/15 08:44:07;;;;;;;;;;;;;;;16.96;100.00;96840.22;1738193;80;20356;-89
2022/09/15 08:46:36;;;;;;;;;;;;;;;16.90;100.00;96845.70;1728531;82;20217;-89
2022/09/15 08:49:21;;;;;;;;;;;;;;;16.93;100.00;96855.97;1729086;82;20185;-88
2022/09/15 08:51:48;;;;;;;;;;;;;;;17.03;100.00;96858.20;1712662;82;20211;-88
2022/09/15 08:54:25;;;;;;;;;;;;;;;17.25;100.00;96855.45;1727771;82;21715;-90
2022/09/15 08:56:51;;;;;;;;;;;;;;;17.55;100.00;96868.74;1722863;80;20255;-88
2022/09/15 08:59:18;;;;;;;;;;;;;;;17.89;100.00;96870.02;1725826;82;20207;-87
2022/09/15 09:01:59;;;;;;;;;;;;;;;18.05;100.00;96874.91;1733893;82;20586;-87
2022/09/15 09:04:51;;;;;;;;;;;;;;;18.32;100.00;96881.40;1731825;82;20488;-88
2022/09/15 09:07:52;;;;;;;;;;;;;;;18.27;100.00;96887.14;1727159;82;21310;-87
2022/09/15 09:10:34;;;;;;;;;;;;;;;18.23;100.00;96885.70;1656305;85;20918;-89
2022/09/15 09:13:37;;;;;;;;;;;;;;;18.24;100.00;96890.61;1711828;82;20322;-89
2022/09/15 09:16:32;;;;;;;;;;;;;;;18.31;100.00;96892.15;1716914;82;20204;-87
2022/09/15 09:19:33;;;;;;;;;;;;;;;18.40;99.93;96893.33;1719146;82;20168;-87
2022/09/15 09:22:02;;;;;;;;;;;;;;;18.35;99.06;96890.27;1727173;82;21231;-87
2022/09/15 09:24:43;;;;;;;;;;;;;;;18.40;98.32;96889.21;1722390;82;20443;-87
2022/09/15 09:27:12;;;;;;;;;;;;;;;18.51;99.00;96890.23;1727174;82;20298;-87
2022/09/15 09:29:49;;;;;;;;;;;;;;;18.63;97.93;96881.89;1724828;82;20214;-89
2022/09/15 09:32:26;;;;;;;;;;;;;;;18.73;98.52;96895.65;1729986;80;20229;-89
2022/09/15 09:35:18;;;;;;;;;;;;;;;18.79;98.37;96896.93;1729710;82;21683;-87
2022/09/15 09:37:44;;;;;;;;;;;;;;;18.68;97.54;96896.72;1725208;82;20245;-89
2022/09/15 09:40:13;;;;;;;;;;;;;;;18.42;95.05;96893.75;1733676;82;20200;-87
2022/09/15 09:42:39;;;;;;;;;;;;;;;18.38;96.06;96893.69;1730737;82;20481;-89
2022/09/15 09:45:06;;;;;;;;;;;;;;;18.35;96.93;96903.19;1724342;80;20802;-89
2022/09/15 09:47:33;;;;;;;;;;;;;;;18.39;97.81;96908.98;1725493;82;21232;-87
2022/09/15 09:49:59;;;;;;;;;;;;;;;18.20;96.49;96908.36;1699023;82;20236;-88
2022/09/15 09:52:33;;;;;;;;;;;;;;;18.18;97.99;96918.86;1718076;82;20420;-86
2022/09/15 09:55:00;;;;;;;;;;;;;;;18.06;96.84;96909.95;1732905;80;20548;-87
2022/09/15 09:57:33;;;;;;;;;;;;;;;18.00;97.80;96906.68;1733689;80;20253;-87
2022/09/15 09:59:58;;;;;;;;;;;;;;;18.00;98.55;96910.22;1665314;82;22047;-88
2022/09/15 10:02:27;;;;;;;;;;;;;;;17.92;98.60;96909.81;1725446;82;20227;-89
2022/09/15 10:04:55;;;;;;;;;;;;;;;17.82;98.72;96910.93;1725715;82;20256;-87
2022/09/15 10:07:24;;;;;;;;;;;;;;;17.72;99.31;96902.67;1733235;82;20232;-88
2022/09/15 10:09:53;;;;;;;;;;;;;;;17.61;100.00;96898.27;1723526;80;20212;-86
2022/09/15 10:12:24;;;;;;;;;;;;;;;17.62;100.00;96894.38;1725830;80;21014;-87
2022/09/15 10:14:52;;;;;;;;;;;;;;;17.62;100.00;96892.21;1723902;82;20555;-87
2022/09/15 10:17:20;;;;;;;;;;;;;;;17.71;100.00;96889.55;1728316;82;20581;-87
2022/09/15 10:19:53;;;;;;;;;;;;;;;17.85;100.00;96890.45;1730829;82;20212;-86
2022/09/15 10:22:23;;;;;;;;;;;;;;;17.85;100.00;96889.09;1695332;82;21022;-88
2022/09/15 10:24:49;;;;;;;;;;;;;;;17.93;100.00;96890.06;1705566;82;22436;-88
2022/09/15 10:27:17;;;;;;;;;;;;;;;17.97;100.00;96882.73;1725536;82;20231;-89
2022/09/15 10:29:43;;;;;;;;;;;;;;;17.90;100.00;96883.35;1728455;82;20181;-89
2022/09/15 10:32:27;;;;;;;;;;;;;;;17.99;100.00;96877.11;1721461;82;20459;-88
2022/09/15 10:35:11;;;;;;;;;;;;;;;18.01;99.91;96882.23;1724884;80;20208;-88
2022/09/15 10:37:57;;;;;;;;;;;;;;;18.08;100.00;96878.88;1725672;82;21115;-87
2022/09/15 10:40:26;;;;;;;;;;;;;;;18.18;100.00;96882.43;1729289;82;20192;-88
2022/09/15 10:42:54;;;;;;;;;;;;;;;18.21;100.00;96883.11;1736016;80;20275;-87
2022/09/15 10:45:29;;;;;;;;;;;;;;;18.17;100.00;96888.49;1728278;80;20630;-87
2022/09/15 10:47:59;;;;;;;;;;;;;;;18.11;100.00;96880.89;1710725;82;20217;-87
2022/09/15 10:50:45;;;;;;;;;;;;;;;18.22;100.00;96875.10;1728840;82;21139;-87
2022/09/15 10:53:48;;;;;;;;;;;;;;;18.32;100.00;96875.91;1729364;82;20342;-89
2022/09/15 10:56:24;;;;;;;;;;;;;;;18.42;99.79;96874.55;1726350;82;20917;-87
2022/09/15 10:58:57;;;;;;;;;;;;;;;18.26;100.00;96869.11;1726505;80;20252;-87
2022/09/15 11:01:30;;;;;;;;;;;;;;;18.29;100.00;96871.95;1722182;81;20492;-87
2022/09/15 11:04:11;;;;;;;;;;;;;;;18.27;100.00;96870.69;1734014;82;21261;-89
2022/09/15 11:06:52;;;;;;;;;;;;;;;18.30;100.00;96868.63;1727477;82;20164;-87
2022/09/15 11:09:27;;;;;;;;;;;;;;;18.11;100.00;96871.30;1735059;80;20287;-87
2022/09/15 11:12:30;;;;;;;;;;;;;;;18.00;100.00;96872.42;1732476;82;20311;-87
2022/09/15 11:15:32;;;;;;;;;;;;;;;17.84;100.00;96876.54;1729166;82;20213;-87
2022/09/15 11:18:16;;;;;;;;;;;;;;;17.73;100.00;96874.91;1725007;82;21074;-87
2022/09/15 11:21:10;;;;;;;;;;;;;;;17.68;100.00;96868.28;1724729;82;20553;-89
2022/09/15 11:23:43;;;;;;;;;;;;;;;17.57;100.00;96854.91;1737006;80;20212;-87
2022/09/15 11:26:21;;;;;;;;;;;;;;;17.59;100.00;96849.87;1728935;82;20228;-89
2022/09/15 11:28:53;;;;;;;;;;;;;;;17.61;100.00;96839.95;1725021;82;20218;-87
2022/09/15 11:31:22;;;;;;;;;;;;;;;17.66;100.00;96840.46;1708128;82;21889;-88
2022/09/15 11:34:21;;;;;;;;;;;;;;;17.69;100.00;96843.09;1730709;82;20502;-88
2022/09/15 11:36:53;;;;;;;;;;;;;;;17.76;100.00;96843.27;1726535;82;20160;-87
2022/09/15 11:39:24;;;;;;;;;;;;;;;17.88;100.00;96834.17;1730684;81;20393;-87
2022/09/15 11:41:56;;;;;;;;;;;;;;;18.02;100.00;96821.58;1721963;82;20255;-87
2022/09/15 11:44:25;;;;;;;;;;;;;;;18.08;100.00;96821.31;1732651;81;21337;-88
2022/09/15 11:47:16;;;;;;;;;;;;;;;18.09;100.00;96814.67;1726130;80;20190;-87
2022/09/15 11:49:51;;;;;;;;;;;;;;;18.14;100.00;96816.57;1723826;82;20213;-89
2022/09/15 11:52:55;;;;;;;;;;;;;;;18.13;100.00;96814.98;1727029;82;20181;-89
2022/09/15 11:55:40;;;;;;;;;;;;;;;18.08;100.00;96812.51;1716451;82;20209;-87
2022/09/15 11:58:12;;;;;;;;;;;;;;;18.16;100.00;96810.73;1720036;82;21078;-88
2022/09/15 12:00:39;;;;;;;;;;;;;;;18.30;100.00;96817.32;1719049;80;20219;-89
2022/09/15 12:03:11;;;;;;;;;;;;;;;18.24;100.00;96807.78;1717679;82;20157;-87
2022/09/15 12:05:48;;;;;;;;;;;;;;;18.24;100.00;96813.84;1726654;82;20274;-87
2022/09/15 12:08:31;;;;;;;;;;;;;;;18.27;100.00;96813.11;1728261;82;20228;-86
2022/09/15 12:10:57;;;;;;;;;;;;;;;18.23;100.00;96810.31;1719377;80;21102;-87
2022/09/15 12:13:24;;;;;;;;;;;;;;;18.18;100.00;96816.64;1706260;83;20206;-87
2022/09/15 12:15:50;;;;;;;;;;;;;;;18.14;100.00;96815.78;1723948;82;20513;-87
2022/09/15 12:18:37;;;;;;;;;;;;;;;18.11;100.00;96809.63;1724423;82;20185;-89
2022/09/15 12:21:25;;;;;;;;;;;;;;;18.06;100.00;96814.03;1720997;82;20158;-88
2022/09/15 12:23:57;;;;;;;;;;;;;;;18.07;100.00;96812.88;1727170;80;22006;-87
2022/09/15 12:26:24;;;;;;;;;;;;;;;18.02;100.00;96813.35;1725858;82;20194;-87
2022/09/15 12:29:03;;;;;;;;;;;;;;;18.09;100.00;96809.19;1721400;82;20568;-87
2022/09/15 12:31:35;;;;;;;;;;;;;;;18.15;100.00;96805.03;1723945;82;20170;-87
2022/09/15 12:34:26;;;;;;;;;;;;;;;18.18;100.00;96803.72;1725890;82;20333;-89
2022/09/15 12:36:52;;;;;;;;;;;;;;;18.23;100.00;96797.97;1741797;80;21073;-87
2022/09/15 12:39:21;;;;;;;;;;;;;;;18.29;100.00;96803.40;1736279;82;20221;-86
2022/09/15 12:41:56;;;;;;;;;;;;;;;18.40;100.00;96795.97;1725732;82;20623;-89
2022/09/15 12:44:26;;;;;;;;;;;;;;;18.49;100.00;96797.92;1727982;82;20563;-89
2022/09/15 12:46:53;;;;;;;;;;;;;;;18.58;100.00;96789.69;1732910;82;20238;-89
2022/09/15 12:49:19;;;;;;;;;;;;;;;18.63;100.00;96790.54;1700802;82;21154;-87
2022/09/15 12:51:48;;;;;;;;;;;;;;;18.61;100.00;96791.70;1732153;82;21048;-87
2022/09/15 12:54:26;;;;;;;;;;;;;;;18.58;100.00;96783.41;1712656;82;20239;-87
2022/09/15 12:56:52;;;;;;;;;;;;;;;18.48;100.00;96779.88;1730069;82;20200;-88